Time;durP1;ratioP1;P1;durP2;ratioP2;P2;SDS_P1;SDS_P2;PMS_P1;PMS_P2;Temp;Humidity;BMP_temperature;BMP_pressure;BME280_temperature;BME280_humidity;BME280_pressure;Samples;Min_cycle;Max_cycle;Signal;HPM_P1;HPM_P2
2022/10/17 00:00:20;;;;;;;;;;;11.50;99.90;;;;;;5100488;27;20423;-89
2022/10/17 00:02:48;;;;;;;;;;;11.50;99.90;;;;;;5100052;27;19969;-89
2022/10/17 00:05:13;;;;;;;;;;;10.70;99.90;;;;;;5099915;28;19923;-89
2022/10/17 00:07:41;;;;;;;;;;;11.50;99.90;;;;;;5099827;28;19930;-89
2022/10/17 00:10:07;;;;;;;;;;;10.20;99.90;;;;;;5083806;28;19969;-89
2022/10/17 00:12:33;;;;;;;;;;;11.40;99.90;;;;;;5100798;28;19997;-89
2022/10/17 00:15:01;;;;;;;;;;;10.90;99.90;;;;;;5099908;28;19930;-89
2022/10/17 00:17:37;;;;;;;;;;;;;;;;;;;;;
2022/10/17 00:20:03;;;;;;;;;;;11.60;99.90;;;;;;5151726;27;19924;-89
2022/10/17 00:22:28;;;;;;;;;;;11.60;99.90;;;;;;5100732;28;20022;-89
2022/10/17 00:24:57;;;;;;;;;;;12.70;99.90;;;;;;5116065;28;19930;-89
2022/10/17 00:27:27;;;;;;;;;;;10.10;99.90;;;;;;5114786;28;19932;-88
2022/10/17 00:30:01;;;;;;;;;;;11.60;99.90;;;;;;5109726;28;19963;-89
2022/10/17 00:32:26;;;;;;;;;;;11.70;99.90;;;;;;5108161;28;19923;-90
2022/10/17 00:34:52;;;;;;;;;;;10.40;99.90;;;;;;5102284;28;19923;-89
2022/10/17 00:37:21;;;;;;;;;;;11.80;99.90;;;;;;5099627;28;19967;-88
2022/10/17 00:39:46;;;;;;;;;;;11.80;99.90;;;;;;5099923;28;19923;-89
2022/10/17 00:42:12;;;;;;;;;;;11.70;99.90;;;;;;5100151;28;20408;-89
2022/10/17 00:44:41;;;;;;;;;;;11.70;99.90;;;;;;5100115;28;19924;-89
2022/10/17 00:47:12;;;;;;;;;;;11.70;99.90;;;;;;5099820;28;19971;-88
2022/10/17 00:49:38;;;;;;;;;;;11.70;99.90;;;;;;5099894;27;19923;-89
2022/10/17 00:52:06;;;;;;;;;;;11.70;99.90;;;;;;5103103;27;19923;-89
2022/10/17 00:54:55;;;;;;;;;;;11.90;99.90;;;;;;5103342;27;20390;-89
2022/10/17 00:57:21;;;;;;;;;;;11.90;99.90;;;;;;5079706;27;19956;-90
2022/10/17 00:59:51;;;;;;;;;;;11.90;99.90;;;;;;5105658;27;19923;-89
2022/10/17 01:02:18;;;;;;;;;;;11.90;99.90;;;;;;5105606;27;19930;-88
2022/10/17 01:04:46;;;;;;;;;;;10.90;99.90;;;;;;5103404;27;19947;-89
2022/10/17 01:07:14;;;;;;;;;;;12.30;99.90;;;;;;5102621;27;19923;-89
2022/10/17 01:09:43;;;;;;;;;;;12.00;99.90;;;;;;5104272;27;19931;-90
2022/10/17 01:12:17;;;;;;;;;;;12.00;99.90;;;;;;5104807;27;19927;-88
2022/10/17 01:14:46;;;;;;;;;;;12.00;99.90;;;;;;5103944;27;20381;-88
2022/10/17 01:17:22;;;;;;;;;;;12.10;99.90;;;;;;5102915;27;19923;-89
2022/10/17 01:20:07;;;;;;;;;;;12.10;99.90;;;;;;5102566;27;19923;-88
2022/10/17 01:22:49;;;;;;;;;;;10.80;99.90;;;;;;5104008;27;19930;-89
2022/10/17 01:25:20;;;;;;;;;;;13.50;99.90;;;;;;5103105;27;19923;-88
2022/10/17 01:28:04;;;;;;;;;;;12.20;99.90;;;;;;5102568;27;19924;-88
2022/10/17 01:30:45;;;;;;;;;;;12.20;99.90;;;;;;5102694;27;20026;-89
2022/10/17 01:33:20;;;;;;;;;;;12.10;99.90;;;;;;5102784;27;19935;-88
2022/10/17 01:35:55;;;;;;;;;;;12.30;99.90;;;;;;5102818;27;19924;-89
2022/10/17 01:38:31;;;;;;;;;;;12.30;99.90;;;;;;5102948;27;20002;-88
2022/10/17 01:41:15;;;;;;;;;;;12.40;99.90;;;;;;5103317;27;20335;-89
2022/10/17 01:43:46;;;;;;;;;;;12.40;99.90;;;;;;5119545;27;19927;-89
2022/10/17 01:46:22;;;;;;;;;;;12.50;99.90;;;;;;5103465;27;19968;-89
2022/10/17 01:48:53;;;;;;;;;;;12.40;99.90;;;;;;5102307;27;19970;-88
2022/10/17 01:51:22;;;;;;;;;;;12.40;99.90;;;;;;5103043;27;19923;-88
2022/10/17 01:53:56;;;;;;;;;;;12.40;99.90;;;;;;5102936;27;19968;-89
2022/10/17 01:56:25;;;;;;;;;;;12.70;99.90;;;;;;5119524;27;19928;-89
2022/10/17 01:58:52;;;;;;;;;;;12.50;99.90;;;;;;5101849;27;20430;-88
2022/10/17 02:01:22;;;;;;;;;;;12.30;99.90;;;;;;5101704;27;19924;-89
2022/10/17 02:03:49;;;;;;;;;;;12.30;99.90;;;;;;5102065;27;19924;-88
2022/10/17 02:06:18;;;;;;;;;;;12.30;99.90;;;;;;5102155;27;19934;-89
2022/10/17 02:08:48;;;;;;;;;;;12.30;99.90;;;;;;5103244;27;19923;-89
2022/10/17 02:11:17;;;;;;;;;;;12.30;99.90;;;;;;5119170;27;19923;-88
2022/10/17 02:13:51;;;;;;;;;;;12.40;99.90;;;;;;5101878;27;19959;-89
2022/10/17 02:16:32;;;;;;;;;;;12.20;99.90;;;;;;5102094;27;20320;-88
2022/10/17 02:19:15;;;;;;;;;;;12.30;99.90;;;;;;5101776;27;19930;-88
2022/10/17 02:22:14;;;;;;;;;;;12.30;99.90;;;;;;5102125;27;19934;-88
2022/10/17 02:24:51;;;;;;;;;;;10.90;99.90;;;;;;5057748;27;20283;-89
2022/10/17 02:27:35;;;;;;;;;;;12.20;99.90;;;;;;5101755;27;19938;-89
2022/10/17 02:30:10;;;;;;;;;;;12.10;99.90;;;;;;5118574;27;19949;-89
2022/10/17 02:32:58;;;;;;;;;;;12.00;99.90;;;;;;5101180;27;19930;-89
2022/10/17 02:35:26;;;;;;;;;;;12.50;99.90;;;;;;5119390;27;19927;-90
2022/10/17 02:37:55;;;;;;;;;;;12.10;99.90;;;;;;5101297;27;20314;-89
2022/10/17 02:40:21;;;;;;;;;;;12.10;99.90;;;;;;5101163;27;19975;-89
2022/10/17 02:42:48;;;;;;;;;;;12.20;99.90;;;;;;5101974;27;19923;-88
2022/10/17 02:45:14;;;;;;;;;;;12.10;99.90;;;;;;5101457;27;19923;-89
2022/10/17 02:47:48;;;;;;;;;;;12.20;99.90;;;;;;5101062;27;20263;-88
2022/10/17 02:50:17;;;;;;;;;;;12.00;99.90;;;;;;5102106;27;20017;-89
2022/10/17 02:53:06;;;;;;;;;;;12.20;99.90;;;;;;5100682;27;19924;-89
2022/10/17 02:55:38;;;;;;;;;;;12.00;99.90;;;;;;5101430;27;20071;-89
2022/10/17 02:58:09;;;;;;;;;;;12.00;99.90;;;;;;5104168;27;19924;-89
2022/10/17 03:00:38;;;;;;;;;;;11.90;99.90;;;;;;5101957;27;19923;-88
2022/10/17 03:03:20;;;;;;;;;;;11.20;99.90;;;;;;5101717;27;20031;-89
2022/10/17 03:05:50;;;;;;;;;;;11.90;99.90;;;;;;5101012;27;20030;-89
2022/10/17 03:08:19;;;;;;;;;;;12.00;99.90;;;;;;5084096;27;19924;-89
2022/10/17 03:10:47;;;;;;;;;;;12.00;99.90;;;;;;5100959;27;19923;-89
2022/10/17 03:13:13;;;;;;;;;;;12.00;99.90;;;;;;5100097;27;19924;-88
2022/10/17 03:15:38;;;;;;;;;;;12.00;99.90;;;;;;5100637;27;19924;-89
2022/10/17 03:18:04;;;;;;;;;;;12.20;99.90;;;;;;5100590;27;19979;-88
2022/10/17 03:20:30;;;;;;;;;;;10.90;99.90;;;;;;5088517;28;19967;-89
2022/10/17 03:23:03;;;;;;;;;;;11.90;99.90;;;;;;5080296;28;19923;-88
2022/10/17 03:25:29;;;;;;;;;;;12.10;99.90;;;;;;5081146;28;19931;-89
2022/10/17 03:28:06;;;;;;;;;;;;;;;;;;;;;
2022/10/17 03:30:32;;;;;;;;;;;11.90;99.90;;;;;;5096892;28;19930;-89
2022/10/17 03:33:01;;;;;;;;;;;12.20;99.90;;;;;;5081038;28;19924;-89
2022/10/17 03:35:26;;;;;;;;;;;12.00;99.90;;;;;;5080137;28;19930;-89
2022/10/17 03:37:55;;;;;;;;;;;12.00;99.90;;;;;;5080072;28;20006;-89
2022/10/17 03:40:20;;;;;;;;;;;12.10;99.90;;;;;;5063788;28;19924;-88
2022/10/17 03:42:46;;;;;;;;;;;12.10;99.90;;;;;;5079975;28;19930;-88
2022/10/17 03:45:14;;;;;;;;;;;11.90;99.90;;;;;;5080075;28;20376;-88
2022/10/17 03:47:42;;;;;;;;;;;10.50;99.90;;;;;;5079728;28;20374;-90
2022/10/17 03:50:08;;;;;;;;;;;11.90;99.90;;;;;;5063590;28;19930;-89
2022/10/17 03:52:34;;;;;;;;;;;11.90;99.90;;;;;;5079588;28;19924;-88
2022/10/17 03:54:59;;;;;;;;;;;12.00;99.90;;;;;;5080785;28;19938;-88
2022/10/17 03:57:27;;;;;;;;;;;12.00;99.90;;;;;;5079554;28;19978;-88
2022/10/17 03:59:53;;;;;;;;;;;11.90;99.90;;;;;;5080007;28;19923;-89
2022/10/17 04:02:19;;;;;;;;;;;12.00;99.90;;;;;;5079869;28;20009;-89
2022/10/17 04:04:45;;;;;;;;;;;11.90;99.90;;;;;;5079548;28;19975;-89
2022/10/17 04:07:10;;;;;;;;;;;10.60;99.90;;;;;;5080090;28;19935;-89
2022/10/17 04:09:36;;;;;;;;;;;11.90;99.90;;;;;;5096136;28;20209;-88
2022/10/17 04:12:07;;;;;;;;;;;12.00;99.90;;;;;;5079410;28;19924;-90
2022/10/17 04:14:33;;;;;;;;;;;12.00;99.90;;;;;;5079051;28;19928;-89
2022/10/17 04:17:04;;;;;;;;;;;12.00;99.90;;;;;;5079845;28;19984;-88
2022/10/17 04:19:35;;;;;;;;;;;12.40;99.90;;;;;;5084455;28;19927;-91
2022/10/17 04:22:03;;;;;;;;;;;12.10;99.90;;;;;;5100618;28;20550;-89
2022/10/17 04:24:28;;;;;;;;;;;12.10;99.90;;;;;;5102155;27;19924;-90
2022/10/17 04:26:54;;;;;;;;;;;12.00;99.90;;;;;;5131887;27;19924;-88
2022/10/17 04:29:20;;;;;;;;;;;12.00;99.90;;;;;;5114619;27;19923;-89
2022/10/17 04:31:56;;;;;;;;;;;12.10;99.90;;;;;;5147663;27;19923;-89
2022/10/17 04:34:26;;;;;;;;;;;12.00;99.90;;;;;;5097257;27;19953;-88
2022/10/17 04:36:54;;;;;;;;;;;12.20;99.90;;;;;;5090888;27;19924;-89
2022/10/17 04:39:22;;;;;;;;;;;12.30;99.90;;;;;;5103685;27;20010;-89
2022/10/17 04:41:48;;;;;;;;;;;12.30;99.90;;;;;;5104058;27;19924;-89
2022/10/17 04:44:14;;;;;;;;;;;12.30;99.90;;;;;;5086694;27;19923;-89
2022/10/17 04:46:42;;;;;;;;;;;12.30;99.90;;;;;;5104364;27;20059;-89
2022/10/17 04:49:08;;;;;;;;;;;12.30;99.90;;;;;;5104008;27;20279;-89
2022/10/17 04:51:36;;;;;;;;;;;12.50;99.90;;;;;;5104453;27;19923;-89
2022/10/17 04:54:02;;;;;;;;;;;12.30;99.90;;;;;;5103791;27;19924;-89
2022/10/17 04:56:27;;;;;;;;;;;12.60;99.90;;;;;;5103591;27;20282;-89
2022/10/17 04:58:53;;;;;;;;;;;12.30;99.90;;;;;;5103663;27;19923;-89
2022/10/17 05:01:20;;;;;;;;;;;12.50;99.90;;;;;;5103470;27;20416;-88
2022/10/17 05:03:46;;;;;;;;;;;12.60;99.90;;;;;;5103859;27;19972;-88
2022/10/17 05:06:13;;;;;;;;;;;12.50;99.90;;;;;;5103674;27;19924;-88
2022/10/17 05:08:41;;;;;;;;;;;12.50;99.90;;;;;;5105314;27;19967;-89
2022/10/17 05:11:27;;;;;;;;;;;12.60;99.90;;;;;;5105955;27;19992;-89
2022/10/17 05:13:54;;;;;;;;;;;12.90;99.90;;;;;;5102579;27;20014;-88
2022/10/17 05:16:27;;;;;;;;;;;12.60;99.90;;;;;;5103767;27;19927;-89
2022/10/17 05:18:54;;;;;;;;;;;12.70;99.90;;;;;;5104726;27;19988;-88
2022/10/17 05:21:31;;;;;;;;;;;12.80;99.90;;;;;;5104678;27;20290;-89
2022/10/17 05:23:57;;;;;;;;;;;12.20;99.90;;;;;;5103787;27;19968;-89
2022/10/17 05:26:23;;;;;;;;;;;12.90;99.90;;;;;;5104029;27;19927;-89
2022/10/17 05:28:51;;;;;;;;;;;12.70;99.90;;;;;;5102625;27;20395;-90
2022/10/17 05:31:19;;;;;;;;;;;12.80;99.90;;;;;;5103427;27;20269;-88
2022/10/17 05:33:44;;;;;;;;;;;12.80;99.90;;;;;;5103036;27;19923;-88
2022/10/17 05:36:10;;;;;;;;;;;12.80;99.90;;;;;;5102776;27;19923;-88
2022/10/17 05:38:36;;;;;;;;;;;12.90;99.90;;;;;;5102657;27;19923;-88
2022/10/17 05:41:11;;;;;;;;;;;12.80;99.90;;;;;;5102597;27;19923;-88
2022/10/17 05:43:36;;;;;;;;;;;13.10;99.90;;;;;;5102781;27;20375;-88
2022/10/17 05:46:05;;;;;;;;;;;13.10;99.90;;;;;;5103856;27;19923;-88
2022/10/17 05:48:31;;;;;;;;;;;13.00;99.90;;;;;;5102337;27;19927;-89
2022/10/17 05:50:58;;;;;;;;;;;12.80;99.90;;;;;;5102608;27;19923;-88
2022/10/17 05:53:25;;;;;;;;;;;12.80;99.90;;;;;;5102351;27;19923;-89
2022/10/17 05:55:58;;;;;;;;;;;12.80;99.90;;;;;;5120051;27;20052;-88
2022/10/17 05:58:27;;;;;;;;;;;13.00;99.90;;;;;;5102187;27;19932;-92
2022/10/17 06:01:05;;;;;;;;;;;12.90;99.90;;;;;;5102337;27;19931;-89
2022/10/17 06:03:31;;;;;;;;;;;13.10;99.90;;;;;;5118989;27;20048;-90
2022/10/17 06:06:01;;;;;;;;;;;12.80;99.90;;;;;;5102734;27;20033;-90
2022/10/17 06:08:27;;;;;;;;;;;13.10;99.90;;;;;;5102059;27;19923;-89
2022/10/17 06:10:56;;;;;;;;;;;12.90;99.90;;;;;;5102922;27;20267;-90
2022/10/17 06:13:24;;;;;;;;;;;13.00;99.90;;;;;;5101972;27;19934;-90
2022/10/17 06:15:57;;;;;;;;;;;12.90;99.90;;;;;;5102008;27;19923;-90
2022/10/17 06:18:26;;;;;;;;;;;13.00;99.90;;;;;;5101893;27;20018;-92
2022/10/17 06:21:11;;;;;;;;;;;12.30;99.90;;;;;;5101887;27;19927;-90
2022/10/17 06:23:50;;;;;;;;;;;13.00;99.90;;;;;;5120841;27;20382;-91
2022/10/17 06:26:16;;;;;;;;;;;13.00;99.90;;;;;;5102815;27;19923;-94
2022/10/17 06:28:47;;;;;;;;;;;13.10;99.90;;;;;;5102588;27;20286;-94
2022/10/17 06:31:14;;;;;;;;;;;13.10;99.90;;;;;;5103328;27;20022;-94
2022/10/17 06:33:43;;;;;;;;;;;14.40;99.90;;;;;;5103709;27;19923;-94
2022/10/17 06:36:10;;;;;;;;;;;14.40;99.90;;;;;;5101701;27;19923;-90
2022/10/17 06:38:38;;;;;;;;;;;13.20;99.90;;;;;;5101706;27;19923;-95
2022/10/17 06:41:07;;;;;;;;;;;13.20;99.90;;;;;;5086073;27;20015;-90
2022/10/17 06:43:33;;;;;;;;;;;12.10;99.90;;;;;;5101411;27;19923;-90
2022/10/17 06:46:01;;;;;;;;;;;13.20;99.90;;;;;;5101104;27;19923;-90
2022/10/17 06:48:27;;;;;;;;;;;13.20;99.90;;;;;;5099794;27;19968;-90
2022/10/17 06:50:55;;;;;;;;;;;13.10;99.90;;;;;;5085053;27;19972;-90
2022/10/17 06:53:21;;;;;;;;;;;12.80;99.90;;;;;;5101874;27;20013;-91
2022/10/17 06:55:50;;;;;;;;;;;13.00;99.90;;;;;;5118464;27;20330;-87
2022/10/17 06:58:15;;;;;;;;;;;13.40;99.90;;;;;;5101408;27;19948;-89
2022/10/17 07:00:41;;;;;;;;;;;13.40;99.90;;;;;;5100730;27;19931;-88
2022/10/17 07:03:07;;;;;;;;;;;12.30;99.90;;;;;;5118635;27;19924;-87
2022/10/17 07:05:32;;;;;;;;;;;13.50;99.90;;;;;;5102492;27;19924;-88
2022/10/17 07:08:00;;;;;;;;;;;13.50;99.90;;;;;;5134994;27;19934;-88
2022/10/17 07:10:26;;;;;;;;;;;13.60;99.90;;;;;;5100764;27;19923;-88
2022/10/17 07:12:52;;;;;;;;;;;13.60;99.90;;;;;;5100786;27;19924;-87
2022/10/17 07:15:17;;;;;;;;;;;13.60;99.90;;;;;;5100998;27;20010;-88
2022/10/17 07:17:46;;;;;;;;;;;13.70;99.90;;;;;;5083839;27;19924;-88
2022/10/17 07:20:12;;;;;;;;;;;13.70;99.90;;;;;;5100047;27;19967;-89
2022/10/17 07:22:38;;;;;;;;;;;15.00;99.90;;;;;;5100650;27;19924;-89
2022/10/17 07:25:04;;;;;;;;;;;13.90;99.90;;;;;;5116916;27;20494;-89
2022/10/17 07:27:29;;;;;;;;;;;13.90;99.90;;;;;;5101087;27;19923;-89
2022/10/17 07:29:55;;;;;;;;;;;14.00;99.90;;;;;;5083405;27;20286;-88
2022/10/17 07:32:21;;;;;;;;;;;14.00;99.90;;;;;;5100201;27;19927;-88
2022/10/17 07:34:46;;;;;;;;;;;14.10;99.90;;;;;;5100736;27;19930;-88
2022/10/17 07:37:12;;;;;;;;;;;14.10;99.90;;;;;;5100166;27;19923;-88
2022/10/17 07:39:38;;;;;;;;;;;14.30;99.90;;;;;;5100047;27;19930;-88
2022/10/17 07:42:06;;;;;;;;;;;14.40;99.90;;;;;;5083428;27;19930;-89
2022/10/17 07:44:34;;;;;;;;;;;14.40;99.90;;;;;;5117618;27;19924;-88
2022/10/17 07:46:59;;;;;;;;;;;14.50;99.90;;;;;;5100034;27;19930;-89
2022/10/17 07:49:25;;;;;;;;;;;14.60;99.90;;;;;;5100064;27;19924;-88
2022/10/17 07:51:51;;;;;;;;;;;14.60;99.90;;;;;;5099913;27;19928;-89
2022/10/17 07:54:16;;;;;;;;;;;14.70;99.90;;;;;;5100163;27;20044;-88
2022/10/17 07:56:42;;;;;;;;;;;14.70;99.90;;;;;;5099869;27;20026;-89
2022/10/17 07:59:08;;;;;;;;;;;14.80;99.90;;;;;;5083320;28;19924;-89
2022/10/17 08:01:36;;;;;;;;;;;14.90;99.90;;;;;;5099993;27;19930;-89
2022/10/17 08:04:02;;;;;;;;;;;15.00;99.90;;;;;;5099411;28;19930;-89
2022/10/17 08:06:30;;;;;;;;;;;15.00;99.90;;;;;;5099821;28;19923;-89
2022/10/17 08:08:58;;;;;;;;;;;15.10;99.90;;;;;;5100214;27;19924;-89
2022/10/17 08:11:24;;;;;;;;;;;15.30;99.90;;;;;;5099952;28;19976;-89
2022/10/17 08:13:50;;;;;;;;;;;15.40;99.90;;;;;;5099774;28;19923;-89
2022/10/17 08:16:15;;;;;;;;;;;15.40;99.90;;;;;;5099465;28;20268;-90
2022/10/17 08:18:42;;;;;;;;;;;15.60;99.90;;;;;;5099762;28;20033;-88
2022/10/17 08:21:08;;;;;;;;;;;15.60;99.90;;;;;;5099519;28;20362;-89
2022/10/17 08:23:34;;;;;;;;;;;15.70;99.90;;;;;;5099385;28;19969;-89
2022/10/17 08:26:01;;;;;;;;;;;15.60;99.90;;;;;;5099732;28;19931;-90
2022/10/17 08:28:27;;;;;;;;;;;15.70;99.90;;;;;;5102812;28;19947;-88
2022/10/17 08:31:00;;;;;;;;;;;15.70;99.90;;;;;;5110645;28;19924;-89
2022/10/17 08:33:28;;;;;;;;;;;15.80;99.90;;;;;;5109819;28;19924;-90
2022/10/17 08:35:53;;;;;;;;;;;15.80;99.90;;;;;;5110563;28;19924;-89
2022/10/17 08:38:22;;;;;;;;;;;15.90;99.90;;;;;;5106692;28;19931;-88
2022/10/17 08:40:50;;;;;;;;;;;15.90;99.90;;;;;;5092623;28;20313;-89
2022/10/17 08:43:24;;;;;;;;;;;15.90;99.90;;;;;;5082718;28;19923;-90
2022/10/17 08:45:55;;;;;;;;;;;15.50;99.90;;;;;;5100471;28;20018;-89
2022/10/17 08:48:23;;;;;;;;;;;16.00;99.90;;;;;;5116340;28;20034;-88
2022/10/17 08:51:07;;;;;;;;;;;16.10;99.90;;;;;;5100365;28;19930;-89
2022/10/17 08:53:45;;;;;;;;;;;16.20;99.90;;;;;;5100029;28;19988;-89
2022/10/17 08:56:18;;;;;;;;;;;16.60;99.90;;;;;;5099910;28;20362;-89
2022/10/17 08:58:44;;;;;;;;;;;16.40;99.90;;;;;;5099619;28;19955;-89
2022/10/17 09:01:40;;;;;;;;;;;16.30;99.90;;;;;;5099186;28;19930;-89
2022/10/17 09:04:09;;;;;;;;;;;16.40;99.90;;;;;;5099253;28;19967;-89
2022/10/17 09:06:49;;;;;;;;;;;16.30;99.90;;;;;;5099339;28;19961;-90
2022/10/17 09:09:14;;;;;;;;;;;16.80;99.90;;;;;;5099734;28;19924;-90
2022/10/17 09:12:03;;;;;;;;;;;15.40;99.90;;;;;;5103408;27;20011;-89
2022/10/17 09:14:32;;;;;;;;;;;16.30;99.90;;;;;;5104092;27;19995;-89
2022/10/17 09:17:04;;;;;;;;;;;16.40;99.90;;;;;;5113343;27;19976;-89
2022/10/17 09:19:33;;;;;;;;;;;16.40;99.90;;;;;;5108971;27;19980;-90
2022/10/17 09:22:04;;;;;;;;;;;16.50;99.90;;;;;;5083494;28;19931;-89
2022/10/17 09:24:53;;;;;;;;;;;16.50;99.90;;;;;;5100939;28;19924;-90
2022/10/17 09:27:25;;;;;;;;;;;16.50;99.90;;;;;;5091225;28;19923;-89
2022/10/17 09:30:02;;;;;;;;;;;16.50;99.90;;;;;;5085807;28;20000;-90
2022/10/17 09:32:27;;;;;;;;;;;16.50;99.90;;;;;;5083064;28;19935;-90
2022/10/17 09:34:53;;;;;;;;;;;16.60;99.90;;;;;;5082718;28;19924;-90
2022/10/17 09:37:21;;;;;;;;;;;16.70;99.90;;;;;;5082416;28;19992;-89
2022/10/17 09:39:47;;;;;;;;;;;16.70;99.90;;;;;;5082209;28;19923;-89
2022/10/17 09:42:20;;;;;;;;;;;16.70;99.90;;;;;;5082367;28;19924;-91
2022/10/17 09:45:12;;;;;;;;;;;16.70;99.90;;;;;;5098911;28;20022;-89
2022/10/17 09:47:47;;;;;;;;;;;16.80;99.90;;;;;;5082293;28;20020;-90
2022/10/17 09:50:21;;;;;;;;;;;16.80;99.90;;;;;;5082259;28;19924;-90
2022/10/17 09:52:49;;;;;;;;;;;16.80;99.90;;;;;;5082383;28;20011;-90
2022/10/17 09:55:17;;;;;;;;;;;16.80;99.90;;;;;;5082367;28;19988;-91
2022/10/17 09:57:53;;;;;;;;;;;15.60;99.90;;;;;;5082156;28;19924;-91
2022/10/17 10:00:21;;;;;;;;;;;16.80;99.90;;;;;;5083179;28;19924;-89
2022/10/17 10:02:47;;;;;;;;;;;16.60;99.90;;;;;;5082091;28;19924;-91
2022/10/17 10:05:20;;;;;;;;;;;16.60;99.90;;;;;;5081757;28;19924;-90
2022/10/17 10:08:11;;;;;;;;;;;16.60;99.90;;;;;;5082338;28;20355;-90
2022/10/17 10:10:37;;;;;;;;;;;16.50;99.90;;;;;;5133818;27;19930;-89
2022/10/17 10:13:16;;;;;;;;;;;16.30;99.90;;;;;;5065303;28;20002;-89
2022/10/17 10:16:04;;;;;;;;;;;16.30;99.90;;;;;;5082143;28;19980;-91
2022/10/17 10:18:33;;;;;;;;;;;16.20;99.90;;;;;;5114481;28;20321;-91
2022/10/17 10:21:12;;;;;;;;;;;15.70;99.90;;;;;;5092632;27;19970;-91
2022/10/17 10:23:41;;;;;;;;;;;16.10;99.90;;;;;;5101608;27;19924;-91
2022/10/17 10:26:24;;;;;;;;;;;16.10;99.90;;;;;;5102747;27;20247;-91
2022/10/17 10:28:58;;;;;;;;;;;16.00;99.90;;;;;;5102028;27;19924;-91
2022/10/17 10:31:25;;;;;;;;;;;16.70;99.90;;;;;;5102179;27;19927;-92
2022/10/17 10:33:51;;;;;;;;;;;16.00;99.90;;;;;;5101532;27;20365;-92
2022/10/17 10:36:21;;;;;;;;;;;16.00;99.90;;;;;;5101619;27;19979;-90
2022/10/17 10:39:05;;;;;;;;;;;;;;;;;;;;;
2022/10/17 10:41:44;;;;;;;;;;;16.00;99.90;;;;;;5118302;27;20283;-91
2022/10/17 10:44:14;;;;;;;;;;;15.80;99.90;;;;;;5101752;27;19924;-91
2022/10/17 10:46:42;;;;;;;;;;;16.00;99.90;;;;;;5100997;27;19927;-90
2022/10/17 10:49:26;;;;;;;;;;;16.10;99.90;;;;;;5101488;27;19968;-90
2022/10/17 10:52:00;;;;;;;;;;;16.10;99.90;;;;;;5102164;27;19924;-91
2022/10/17 10:54:40;;;;;;;;;;;15.90;99.90;;;;;;5102401;27;19923;-90
2022/10/17 10:57:09;;;;;;;;;;;15.90;99.90;;;;;;5101489;27;19968;-91
2022/10/17 10:59:40;;;;;;;;;;;16.00;99.90;;;;;;5101677;27;19968;-90
2022/10/17 11:02:18;;;;;;;;;;;15.90;99.90;;;;;;5101922;27;19923;-91
2022/10/17 11:04:47;;;;;;;;;;;15.90;99.90;;;;;;5100169;27;19977;-90
2022/10/17 11:07:18;;;;;;;;;;;15.90;99.90;;;;;;5101007;27;19923;-90
2022/10/17 11:10:03;;;;;;;;;;;15.90;99.90;;;;;;5102059;27;19924;-92
2022/10/17 11:12:36;;;;;;;;;;;15.90;99.90;;;;;;5103756;27;19923;-91
2022/10/17 11:15:11;;;;;;;;;;;16.10;99.90;;;;;;5101771;27;19923;-91
2022/10/17 11:17:44;;;;;;;;;;;16.20;99.90;;;;;;5101431;27;20013;-91
2022/10/17 11:20:33;;;;;;;;;;;16.20;99.90;;;;;;5100998;27;19924;-92
2022/10/17 11:23:02;;;;;;;;;;;16.10;99.90;;;;;;5089834;27;19923;-91
2022/10/17 11:25:35;;;;;;;;;;;16.20;99.90;;;;;;5101218;27;19930;-92
2022/10/17 11:28:10;;;;;;;;;;;17.40;99.90;;;;;;5100784;27;20525;-91
2022/10/17 11:30:41;;;;;;;;;;;16.20;99.90;;;;;;5100969;27;19923;-90
2022/10/17 11:33:09;;;;;;;;;;;16.30;99.90;;;;;;5101252;27;19924;-90
2022/10/17 11:35:39;;;;;;;;;;;16.20;99.90;;;;;;5100476;27;19924;-89
2022/10/17 11:38:14;;;;;;;;;;;16.20;99.90;;;;;;5101231;27;20072;-92
2022/10/17 11:40:47;;;;;;;;;;;16.30;99.90;;;;;;5101031;27;19923;-90
2022/10/17 11:43:24;;;;;;;;;;;16.30;99.90;;;;;;5100168;28;19932;-91
2022/10/17 11:46:08;;;;;;;;;;;16.00;99.90;;;;;;5100709;27;19930;-91
2022/10/17 11:48:40;;;;;;;;;;;16.30;99.90;;;;;;5101153;27;20271;-90
2022/10/17 11:51:13;;;;;;;;;;;16.20;99.90;;;;;;5100865;27;20468;-91
2022/10/17 11:53:48;;;;;;;;;;;16.20;99.90;;;;;;5100633;27;19923;-90
2022/10/17 11:56:20;;;;;;;;;;;16.10;99.90;;;;;;5100763;28;20273;-91
2022/10/17 11:58:46;;;;;;;;;;;16.20;99.90;;;;;;5100719;27;19924;-93
2022/10/17 12:01:24;;;;;;;;;;;16.20;99.90;;;;;;5100780;27;20023;-91
2022/10/17 12:04:13;;;;;;;;;;;16.30;99.90;;;;;;5100576;28;19923;-90
2022/10/17 12:06:51;;;;;;;;;;;15.10;99.90;;;;;;5101251;27;19924;-90
2022/10/17 12:09:44;;;;;;;;;;;16.20;99.90;;;;;;5100299;28;19930;-91
2022/10/17 12:12:23;;;;;;;;;;;17.00;99.90;;;;;;5100492;28;20391;-90
2022/10/17 12:14:51;;;;;;;;;;;16.20;99.90;;;;;;5100850;28;19968;-91
2022/10/17 12:17:30;;;;;;;;;;;16.50;99.90;;;;;;5100123;28;19924;-90
2022/10/17 12:20:15;;;;;;;;;;;16.20;99.90;;;;;;5097091;27;19924;-91
2022/10/17 12:22:53;;;;;;;;;;;16.30;99.90;;;;;;5080596;28;19977;-91
2022/10/17 12:25:19;;;;;;;;;;;16.40;99.90;;;;;;5080009;28;19924;-91
2022/10/17 12:27:49;;;;;;;;;;;16.50;99.90;;;;;;5080714;28;19992;-92
2022/10/17 12:30:17;;;;;;;;;;;16.60;99.90;;;;;;5083190;28;20279;-92
2022/10/17 12:33:04;;;;;;;;;;;16.70;99.90;;;;;;5085325;28;19928;-91
2022/10/17 12:35:40;;;;;;;;;;;16.80;99.90;;;;;;5083433;28;20378;-92
2022/10/17 12:38:14;;;;;;;;;;;16.70;99.90;;;;;;5068230;28;20028;-90
2022/10/17 12:40:40;;;;;;;;;;;16.70;99.90;;;;;;5081178;28;20388;-90
2022/10/17 12:43:17;;;;;;;;;;;16.70;99.90;;;;;;5080373;28;20061;-91
2022/10/17 12:45:46;;;;;;;;;;;16.70;99.90;;;;;;5080502;28;19931;-91
2022/10/17 12:48:34;;;;;;;;;;;16.60;99.90;;;;;;5083710;28;19927;-92
2022/10/17 12:51:11;;;;;;;;;;;16.60;99.90;;;;;;5062955;28;20327;-90
2022/10/17 12:53:55;;;;;;;;;;;16.50;99.90;;;;;;5083230;28;20022;-90
2022/10/17 12:56:41;;;;;;;;;;;16.50;99.90;;;;;;5083596;28;20034;-91
2022/10/17 12:59:24;;;;;;;;;;;16.50;99.90;;;;;;5084443;28;19934;-91
2022/10/17 13:02:03;;;;;;;;;;;16.50;99.90;;;;;;5083387;28;19924;-91
2022/10/17 13:04:35;;;;;;;;;;;16.50;99.90;;;;;;5083497;28;19931;-90
2022/10/17 13:07:00;;;;;;;;;;;16.40;99.90;;;;;;5083931;28;19930;-90
2022/10/17 13:09:31;;;;;;;;;;;16.40;99.90;;;;;;5083196;28;19924;-90
2022/10/17 13:11:58;;;;;;;;;;;16.30;99.90;;;;;;5083028;28;19924;-91
2022/10/17 13:14:27;;;;;;;;;;;16.30;99.90;;;;;;5082889;28;19986;-92
2022/10/17 13:16:57;;;;;;;;;;;16.20;99.90;;;;;;5083253;28;20076;-91
2022/10/17 13:19:26;;;;;;;;;;;16.30;99.90;;;;;;5082620;28;19923;-91
2022/10/17 13:21:55;;;;;;;;;;;16.20;99.90;;;;;;5084349;27;19934;-91
2022/10/17 13:24:34;;;;;;;;;;;16.10;99.90;;;;;;5104825;27;19968;-90
2022/10/17 13:29:50;;;;;;;;;;;16.10;99.90;;;;;;5121560;27;20316;-91
2022/10/17 13:35:26;;;;;;;;;;;14.90;99.90;;;;;;5122544;27;19930;-91
2022/10/17 13:37:54;;;;;;;;;;;15.90;99.90;;;;;;5105336;27;19988;-91
2022/10/17 13:40:27;;;;;;;;;;;16.10;99.90;;;;;;5104667;27;19930;-92
2022/10/17 13:42:57;;;;;;;;;;;15.80;99.90;;;;;;5103181;27;20017;-90
2022/10/17 13:45:33;;;;;;;;;;;15.80;99.90;;;;;;5102747;27;19923;-90
2022/10/17 13:48:05;;;;;;;;;;;15.60;99.90;;;;;;5103306;27;20023;-91
2022/10/17 13:50:54;;;;;;;;;;;15.70;99.90;;;;;;5103756;27;19965;-91
2022/10/17 13:53:31;;;;;;;;;;;15.20;99.90;;;;;;5103130;27;19923;-91
2022/10/17 13:56:05;;;;;;;;;;;15.40;99.90;;;;;;5103242;27;20419;-92
2022/10/17 13:58:44;;;;;;;;;;;15.30;99.90;;;;;;5102615;27;19928;-91
2022/10/17 14:01:13;;;;;;;;;;;15.40;99.90;;;;;;5102845;27;19942;-91
2022/10/17 14:03:45;;;;;;;;;;;15.40;99.90;;;;;;5085908;27;19931;-91
2022/10/17 14:06:18;;;;;;;;;;;15.30;99.90;;;;;;5103069;27;20022;-91
2022/10/17 14:08:51;;;;;;;;;;;14.50;99.90;;;;;;5102863;27;19987;-90
2022/10/17 14:11:24;;;;;;;;;;;15.40;99.90;;;;;;5103206;27;20355;-91
2022/10/17 14:13:54;;;;;;;;;;;14.90;99.90;;;;;;5102550;27;20013;-91
2022/10/17 14:16:27;;;;;;;;;;;15.30;99.90;;;;;;5104638;27;20027;-91
2022/10/17 14:18:55;;;;;;;;;;;14.70;99.90;;;;;;5102841;27;19923;-92
2022/10/17 14:21:26;;;;;;;;;;;15.30;99.90;;;;;;5087497;28;19967;-91
2022/10/17 14:24:23;;;;;;;;;;;15.30;99.90;;;;;;5083188;28;19931;-91
2022/10/17 14:26:53;;;;;;;;;;;15.30;99.90;;;;;;5082174;28;19923;-92
2022/10/17 14:29:29;;;;;;;;;;;14.70;99.90;;;;;;5081575;28;19972;-91
2022/10/17 14:31:57;;;;;;;;;;;15.40;99.90;;;;;;5081759;28;19924;-91
2022/10/17 14:34:34;;;;;;;;;;;15.40;99.90;;;;;;5081815;28;19931;-91
2022/10/17 14:37:08;;;;;;;;;;;15.30;99.90;;;;;;5081803;28;19924;-91
2022/10/17 14:39:34;;;;;;;;;;;15.30;99.90;;;;;;5081554;28;20471;-90
2022/10/17 14:42:02;;;;;;;;;;;15.40;99.90;;;;;;5081733;28;19930;-91
2022/10/17 14:44:32;;;;;;;;;;;15.30;99.90;;;;;;5063979;28;19923;-92
2022/10/17 14:47:06;;;;;;;;;;;15.30;99.90;;;;;;5081302;28;20352;-90
2022/10/17 14:49:38;;;;;;;;;;;15.00;99.90;;;;;;5081255;28;20375;-90